Hauptseite
METAR-TAF:

METAR-TAF

Flughäfen :

Flughafen Caen-Carpiquet

Caen, Frankreich

Breite: 49-11N, Länge: 000-27W, Höhe: 78 m

Beobachtung

Neuester Wetterbericht von vor 16 Minuten, um 19:00 UTC
Wind 5 kt aus Nordost
Temperatur 5°C
Luftfeuchtigkeit 70%
Luftdruck 1020 hPa
Sichtweite 10 km oder mehr
keine Wolken unter 1500 m und keine Kumulonimbus oder Gewitterwolken

METAR: LFRK 181900Z AUTO 05005KT CAVOK 05/00 Q1020 TEMPO 08015G25KT

Zeit: 20:16 (19:16 UTC)

Prognose

Neuester Wetterbericht von vor 5 Stunden und 16 Minuten, um 14:00 UTC
Gültige Prognose vom 18 um 15 UTC bis 18 um 24 UTC
Wind 10 kt aus Ost
Sichtweite 10 km oder mehr
keine Wolken unter 1500 m und keine Kumulonimbus oder Gewitterwolken
Wahrscheinlichkeit 30% :
Zeitweise
vom 18 um 15 UTC bis 18 um 20 UTC
Wind 15 kt aus Ost, Böen bis zu 25 kt

TAF: LFRK 181400Z 1815/1824 08010KT CAVOK PROB30 TEMPO 1815/1820 08015G25KT

Wetterbeobachtungen und Prognosen von mehr als 4000 Flughäfen (METAR und TAF Bericht).

Die verfügbaren Stationen werden durch gelbe und rote Markierungen auf der Karte dargestellt.

Führen Sie die Maus auf sie, um den Namen der Station zu sehen.

Darauf klicken, um die Beobachtung von Wetterbeobachtungen und Prognosen zu sehen.

Um die Karte zu ändern : klicken Sie auf den grünen Tasten mit einem schwarzen Kreuz Zum Vergrößern, auf den grünen Button mit einem Gedankenstrich zu verkleinern, oder auf die grünen Pfeile für benachbarte Karten.


METAR-TAF: